sensor_id;sensor_type;location;lat;lon;timestamp;temperature;humidity
21387;DHT22;10854;45.922;6.716;2023-02-22T00:02:07;2.40;99.90
21387;DHT22;10854;45.922;6.716;2023-02-22T00:04:41;2.30;99.90
21387;DHT22;10854;45.922;6.716;2023-02-22T00:07:09;2.30;99.90
21387;DHT22;10854;45.922;6.716;2023-02-22T00:09:41;2.30;99.90
21387;DHT22;10854;45.922;6.716;2023-02-22T00:12:11;2.30;99.90
21387;DHT22;10854;45.922;6.716;2023-02-22T00:14:39;2.30;99.90
21387;DHT22;10854;45.922;6.716;2023-02-22T00:17:09;2.30;99.90
21387;DHT22;10854;45.922;6.716;2023-02-22T00:19:42;2.30;99.90
21387;DHT22;10854;45.922;6.716;2023-02-22T00:22:13;2.30;99.90
21387;DHT22;10854;45.922;6.716;2023-02-22T00:24:45;2.30;99.90
21387;DHT22;10854;45.922;6.716;2023-02-22T00:27:15;2.30;99.90
21387;DHT22;10854;45.922;6.716;2023-02-22T00:29:45;2.30;99.90
21387;DHT22;10854;45.922;6.716;2023-02-22T00:32:14;2.30;99.90
21387;DHT22;10854;45.922;6.716;2023-02-22T00:34:43;2.30;99.90
21387;DHT22;10854;45.922;6.716;2023-02-22T00:37:12;2.30;99.90
21387;DHT22;10854;45.922;6.716;2023-02-22T00:39:40;2.30;99.90
21387;DHT22;10854;45.922;6.716;2023-02-22T00:42:10;2.30;99.90
21387;DHT22;10854;45.922;6.716;2023-02-22T00:44:38;2.20;99.90
21387;DHT22;10854;45.922;6.716;2023-02-22T00:47:07;2.20;99.90
21387;DHT22;10854;45.922;6.716;2023-02-22T00:49:36;2.20;99.90
21387;DHT22;10854;45.922;6.716;2023-02-22T00:52:06;2.10;99.90
21387;DHT22;10854;45.922;6.716;2023-02-22T00:54:35;2.10;99.90
21387;DHT22;10854;45.922;6.716;2023-02-22T00:57:04;2.00;99.90
21387;DHT22;10854;45.922;6.716;2023-02-22T00:59:32;2.00;99.90
21387;DHT22;10854;45.922;6.716;2023-02-22T01:02:01;2.00;99.90
21387;DHT22;10854;45.922;6.716;2023-02-22T01:04:30;2.00;99.90
21387;DHT22;10854;45.922;6.716;2023-02-22T01:06:58;2.00;99.90
21387;DHT22;10854;45.922;6.716;2023-02-22T01:09:27;1.90;99.90
21387;DHT22;10854;45.922;6.716;2023-02-22T01:11:56;1.90;99.90
21387;DHT22;10854;45.922;6.716;2023-02-22T01:14:26;1.90;99.90
21387;DHT22;10854;45.922;6.716;2023-02-22T01:16:56;1.80;99.90
21387;DHT22;10854;45.922;6.716;2023-02-22T01:19:24;1.80;99.90
21387;DHT22;10854;45.922;6.716;2023-02-22T01:21:53;1.70;99.90
21387;DHT22;10854;45.922;6.716;2023-02-22T01:24:21;1.70;99.90
21387;DHT22;10854;45.922;6.716;2023-02-22T01:26:51;1.80;99.90
21387;DHT22;10854;45.922;6.716;2023-02-22T01:29:20;1.80;99.90
21387;DHT22;10854;45.922;6.716;2023-02-22T01:31:54;1.80;99.90
21387;DHT22;10854;45.922;6.716;2023-02-22T01:34:23;1.70;99.90
21387;DHT22;10854;45.922;6.716;2023-02-22T01:36:55;1.70;99.90
21387;DHT22;10854;45.922;6.716;2023-02-22T01:39:25;1.70;99.90
21387;DHT22;10854;45.922;6.716;2023-02-22T01:41:54;1.70;99.90
21387;DHT22;10854;45.922;6.716;2023-02-22T01:44:31;1.70;99.90
21387;DHT22;10854;45.922;6.716;2023-02-22T01:47:03;1.60;99.90
21387;DHT22;10854;45.922;6.716;2023-02-22T01:49:43;1.60;99.90
21387;DHT22;10854;45.922;6.716;2023-02-22T01:52:17;1.60;99.90
21387;DHT22;10854;45.922;6.716;2023-02-22T01:54:53;1.50;99.90
21387;DHT22;10854;45.922;6.716;2023-02-22T01:57:23;1.40;99.90
21387;DHT22;10854;45.922;6.716;2023-02-22T01:59:56;1.40;99.90
21387;DHT22;10854;45.922;6.716;2023-02-22T02:02:26;1.40;99.90
21387;DHT22;10854;45.922;6.716;2023-02-22T02:04:56;1.30;99.90
21387;DHT22;10854;45.922;6.716;2023-02-22T02:07:27;1.30;99.90
21387;DHT22;10854;45.922;6.716;2023-02-22T02:09:59;1.30;99.90
21387;DHT22;10854;45.922;6.716;2023-02-22T02:12:30;1.30;99.90
21387;DHT22;10854;45.922;6.716;2023-02-22T02:15:35;1.30;99.90
21387;DHT22;10854;45.922;6.716;2023-02-22T02:18:06;1.30;99.90
21387;DHT22;10854;45.922;6.716;2023-02-22T02:26:41;1.30;99.90
21387;DHT22;10854;45.922;6.716;2023-02-22T02:32:01;1.30;99.90
21387;DHT22;10854;45.922;6.716;2023-02-22T02:34:57;1.30;99.90
21387;DHT22;10854;45.922;6.716;2023-02-22T02:40:56;1.30;99.90
21387;DHT22;10854;45.922;6.716;2023-02-22T02:43:46;1.20;99.90
21387;DHT22;10854;45.922;6.716;2023-02-22T02:49:00;1.20;99.90
21387;DHT22;10854;45.922;6.716;2023-02-22T02:51:38;1.20;99.90
21387;DHT22;10854;45.922;6.716;2023-02-22T02:54:08;1.10;99.90
21387;DHT22;10854;45.922;6.716;2023-02-22T02:56:37;1.10;99.90
21387;DHT22;10854;45.922;6.716;2023-02-22T02:59:30;1.10;99.90
21387;DHT22;10854;45.922;6.716;2023-02-22T03:08:28;1.00;99.90
21387;DHT22;10854;45.922;6.716;2023-02-22T03:11:13;1.00;99.90
21387;DHT22;10854;45.922;6.716;2023-02-22T03:13:48;1.00;99.90
21387;DHT22;10854;45.922;6.716;2023-02-22T03:18:55;0.90;99.90
21387;DHT22;10854;45.922;6.716;2023-02-22T03:24:47;0.90;99.90
21387;DHT22;10854;45.922;6.716;2023-02-22T03:29:58;0.80;99.90
21387;DHT22;10854;45.922;6.716;2023-02-22T03:32:32;0.80;99.90
21387;DHT22;10854;45.922;6.716;2023-02-22T03:35:09;0.80;99.90
21387;DHT22;10854;45.922;6.716;2023-02-22T03:37:44;0.80;99.90
21387;DHT22;10854;45.922;6.716;2023-02-22T03:40:17;0.80;99.90
21387;DHT22;10854;45.922;6.716;2023-02-22T03:43:05;0.80;99.90
21387;DHT22;10854;45.922;6.716;2023-02-22T03:45:36;0.80;99.90
21387;DHT22;10854;45.922;6.716;2023-02-22T03:51:01;0.70;99.90
21387;DHT22;10854;45.922;6.716;2023-02-22T03:53:34;0.80;99.90
21387;DHT22;10854;45.922;6.716;2023-02-22T03:56:06;0.80;99.90
21387;DHT22;10854;45.922;6.716;2023-02-22T03:58:37;0.80;99.90
21387;DHT22;10854;45.922;6.716;2023-02-22T04:01:06;0.70;99.90
21387;DHT22;10854;45.922;6.716;2023-02-22T04:03:34;0.70;99.90
21387;DHT22;10854;45.922;6.716;2023-02-22T04:06:03;0.70;99.90
21387;DHT22;10854;45.922;6.716;2023-02-22T04:08:31;0.70;99.90
21387;DHT22;10854;45.922;6.716;2023-02-22T04:11:00;0.70;99.90
21387;DHT22;10854;45.922;6.716;2023-02-22T04:13:29;0.70;99.90
21387;DHT22;10854;45.922;6.716;2023-02-22T04:15:59;0.70;99.90
21387;DHT22;10854;45.922;6.716;2023-02-22T04:18:27;0.70;99.90
21387;DHT22;10854;45.922;6.716;2023-02-22T04:20:56;0.70;99.90
21387;DHT22;10854;45.922;6.716;2023-02-22T04:23:24;0.70;99.90
21387;DHT22;10854;45.922;6.716;2023-02-22T04:25:54;0.70;99.90
21387;DHT22;10854;45.922;6.716;2023-02-22T04:28:23;0.60;99.90
21387;DHT22;10854;45.922;6.716;2023-02-22T04:30:53;0.70;99.90
21387;DHT22;10854;45.922;6.716;2023-02-22T04:33:21;0.60;99.90
21387;DHT22;10854;45.922;6.716;2023-02-22T04:35:52;0.60;99.90
21387;DHT22;10854;45.922;6.716;2023-02-22T04:38:20;0.50;99.90
21387;DHT22;10854;45.922;6.716;2023-02-22T04:40:49;0.50;99.90
21387;DHT22;10854;45.922;6.716;2023-02-22T04:43:17;0.50;99.90
21387;DHT22;10854;45.922;6.716;2023-02-22T04:45:46;0.50;99.90
21387;DHT22;10854;45.922;6.716;2023-02-22T04:48:15;0.40;99.90
21387;DHT22;10854;45.922;6.716;2023-02-22T04:50:43;0.40;99.90
21387;DHT22;10854;45.922;6.716;2023-02-22T04:53:12;0.30;99.90
21387;DHT22;10854;45.922;6.716;2023-02-22T04:55:41;0.30;99.90
21387;DHT22;10854;45.922;6.716;2023-02-22T04:58:09;0.30;99.90
21387;DHT22;10854;45.922;6.716;2023-02-22T05:00:38;0.30;99.90
21387;DHT22;10854;45.922;6.716;2023-02-22T05:03:06;0.30;99.90
21387;DHT22;10854;45.922;6.716;2023-02-22T05:05:35;0.30;99.90
21387;DHT22;10854;45.922;6.716;2023-02-22T05:08:04;0.40;99.90
21387;DHT22;10854;45.922;6.716;2023-02-22T05:10:32;0.40;99.90
21387;DHT22;10854;45.922;6.716;2023-02-22T05:13:01;0.30;99.90
21387;DHT22;10854;45.922;6.716;2023-02-22T05:15:30;0.40;99.90
21387;DHT22;10854;45.922;6.716;2023-02-22T05:17:59;0.30;99.90
21387;DHT22;10854;45.922;6.716;2023-02-22T05:20:30;0.30;99.90
21387;DHT22;10854;45.922;6.716;2023-02-22T05:23:00;0.30;99.90
21387;DHT22;10854;45.922;6.716;2023-02-22T05:25:31;0.30;99.90
21387;DHT22;10854;45.922;6.716;2023-02-22T05:28:03;0.20;99.90
21387;DHT22;10854;45.922;6.716;2023-02-22T05:30:34;0.20;99.90
21387;DHT22;10854;45.922;6.716;2023-02-22T05:33:03;0.10;99.90
21387;DHT22;10854;45.922;6.716;2023-02-22T05:35:31;0.10;99.90
21387;DHT22;10854;45.922;6.716;2023-02-22T05:37:59;0.00;99.90
21387;DHT22;10854;45.922;6.716;2023-02-22T05:40:30;0.00;99.90
21387;DHT22;10854;45.922;6.716;2023-02-22T05:42:59;0.00;99.90
21387;DHT22;10854;45.922;6.716;2023-02-22T05:45:29;0.00;99.90
21387;DHT22;10854;45.922;6.716;2023-02-22T05:47:57;0.00;99.90
21387;DHT22;10854;45.922;6.716;2023-02-22T05:50:26;0.00;99.90
21387;DHT22;10854;45.922;6.716;2023-02-22T05:52:55;-0.10;99.90
21387;DHT22;10854;45.922;6.716;2023-02-22T05:55:23;-0.10;99.90
21387;DHT22;10854;45.922;6.716;2023-02-22T05:57:52;-0.10;99.90
21387;DHT22;10854;45.922;6.716;2023-02-22T06:00:27;-0.10;99.90
21387;DHT22;10854;45.922;6.716;2023-02-22T06:02:57;-0.10;99.90
21387;DHT22;10854;45.922;6.716;2023-02-22T06:05:26;-0.20;99.90
21387;DHT22;10854;45.922;6.716;2023-02-22T06:07:56;-0.20;99.90
21387;DHT22;10854;45.922;6.716;2023-02-22T06:10:27;-0.20;99.90
21387;DHT22;10854;45.922;6.716;2023-02-22T06:12:57;-0.20;99.90
21387;DHT22;10854;45.922;6.716;2023-02-22T06:15:27;-0.20;99.90
21387;DHT22;10854;45.922;6.716;2023-02-22T06:17:57;-0.20;99.90
21387;DHT22;10854;45.922;6.716;2023-02-22T06:20:29;-0.20;99.90
21387;DHT22;10854;45.922;6.716;2023-02-22T06:22:57;-0.20;99.90
21387;DHT22;10854;45.922;6.716;2023-02-22T06:25:28;-0.10;99.90
21387;DHT22;10854;45.922;6.716;2023-02-22T06:28:01;-0.20;99.90
21387;DHT22;10854;45.922;6.716;2023-02-22T06:30:29;-0.20;99.90
21387;DHT22;10854;45.922;6.716;2023-02-22T06:32:58;-0.10;99.90
21387;DHT22;10854;45.922;6.716;2023-02-22T06:35:27;-0.10;99.90
21387;DHT22;10854;45.922;6.716;2023-02-22T06:37:55;-0.10;99.90
21387;DHT22;10854;45.922;6.716;2023-02-22T06:40:24;-0.10;99.90
21387;DHT22;10854;45.922;6.716;2023-02-22T06:42:57;0.00;99.90
21387;DHT22;10854;45.922;6.716;2023-02-22T06:45:26;0.10;99.90
21387;DHT22;10854;45.922;6.716;2023-02-22T06:47:57;0.10;99.90
21387;DHT22;10854;45.922;6.716;2023-02-22T06:50:33;0.20;99.90
21387;DHT22;10854;45.922;6.716;2023-02-22T06:53:02;0.30;99.90
21387;DHT22;10854;45.922;6.716;2023-02-22T06:55:33;0.30;99.90
21387;DHT22;10854;45.922;6.716;2023-02-22T06:58:03;0.40;99.90
21387;DHT22;10854;45.922;6.716;2023-02-22T07:00:32;0.50;99.90
21387;DHT22;10854;45.922;6.716;2023-02-22T07:03:03;0.50;99.90
21387;DHT22;10854;45.922;6.716;2023-02-22T07:05:31;0.60;99.90
21387;DHT22;10854;45.922;6.716;2023-02-22T07:08:05;0.70;99.90
21387;DHT22;10854;45.922;6.716;2023-02-22T07:10:35;0.80;99.90
21387;DHT22;10854;45.922;6.716;2023-02-22T07:13:06;0.90;99.90
21387;DHT22;10854;45.922;6.716;2023-02-22T07:15:35;1.00;99.90
21387;DHT22;10854;45.922;6.716;2023-02-22T07:18:05;1.10;99.90
21387;DHT22;10854;45.922;6.716;2023-02-22T07:20:34;1.20;99.90
21387;DHT22;10854;45.922;6.716;2023-02-22T07:23:04;1.20;99.90
21387;DHT22;10854;45.922;6.716;2023-02-22T07:25:34;1.30;99.90
21387;DHT22;10854;45.922;6.716;2023-02-22T07:28:04;1.40;99.90
21387;DHT22;10854;45.922;6.716;2023-02-22T07:30:33;1.50;99.90
21387;DHT22;10854;45.922;6.716;2023-02-22T07:33:04;1.60;99.90
21387;DHT22;10854;45.922;6.716;2023-02-22T07:35:35;1.60;99.90
21387;DHT22;10854;45.922;6.716;2023-02-22T07:38:05;1.70;99.90
21387;DHT22;10854;45.922;6.716;2023-02-22T07:40:38;1.80;99.90
21387;DHT22;10854;45.922;6.716;2023-02-22T07:43:24;1.90;99.90
21387;DHT22;10854;45.922;6.716;2023-02-22T07:45:55;1.90;99.90
21387;DHT22;10854;45.922;6.716;2023-02-22T07:48:26;2.00;99.90
21387;DHT22;10854;45.922;6.716;2023-02-22T07:50:57;2.10;99.90
21387;DHT22;10854;45.922;6.716;2023-02-22T07:53:28;2.20;99.90
21387;DHT22;10854;45.922;6.716;2023-02-22T07:55:58;2.40;99.90
21387;DHT22;10854;45.922;6.716;2023-02-22T07:58:28;2.50;99.90
21387;DHT22;10854;45.922;6.716;2023-02-22T08:00:57;2.60;99.90
21387;DHT22;10854;45.922;6.716;2023-02-22T08:03:29;2.70;99.90
21387;DHT22;10854;45.922;6.716;2023-02-22T08:05:57;2.90;99.90
21387;DHT22;10854;45.922;6.716;2023-02-22T08:08:27;3.00;99.90
21387;DHT22;10854;45.922;6.716;2023-02-22T08:10:57;3.20;99.90
21387;DHT22;10854;45.922;6.716;2023-02-22T08:13:27;3.40;99.90
21387;DHT22;10854;45.922;6.716;2023-02-22T08:15:55;3.50;99.90
21387;DHT22;10854;45.922;6.716;2023-02-22T08:18:25;3.70;99.90
21387;DHT22;10854;45.922;6.716;2023-02-22T08:20:53;3.90;99.90
21387;DHT22;10854;45.922;6.716;2023-02-22T08:23:24;4.20;99.90
21387;DHT22;10854;45.922;6.716;2023-02-22T08:25:54;4.40;99.90
21387;DHT22;10854;45.922;6.716;2023-02-22T08:28:23;4.60;99.90
21387;DHT22;10854;45.922;6.716;2023-02-22T08:30:52;4.70;99.90
21387;DHT22;10854;45.922;6.716;2023-02-22T08:33:21;4.90;99.90
21387;DHT22;10854;45.922;6.716;2023-02-22T08:35:50;5.20;99.90
21387;DHT22;10854;45.922;6.716;2023-02-22T08:38:29;5.40;99.90
21387;DHT22;10854;45.922;6.716;2023-02-22T08:40:59;5.70;99.90
21387;DHT22;10854;45.922;6.716;2023-02-22T08:43:27;5.90;99.90
21387;DHT22;10854;45.922;6.716;2023-02-22T08:45:55;6.20;99.90
21387;DHT22;10854;45.922;6.716;2023-02-22T08:48:24;6.30;99.90
21387;DHT22;10854;45.922;6.716;2023-02-22T08:50:53;6.50;99.90
21387;DHT22;10854;45.922;6.716;2023-02-22T08:53:22;6.90;99.90
21387;DHT22;10854;45.922;6.716;2023-02-22T08:55:51;7.50;99.90
21387;DHT22;10854;45.922;6.716;2023-02-22T08:58:20;8.20;99.90
21387;DHT22;10854;45.922;6.716;2023-02-22T09:00:48;9.00;99.90
21387;DHT22;10854;45.922;6.716;2023-02-22T09:03:20;9.60;98.20
21387;DHT22;10854;45.922;6.716;2023-02-22T09:05:48;9.90;94.60
21387;DHT22;10854;45.922;6.716;2023-02-22T09:08:17;10.30;92.50
21387;DHT22;10854;45.922;6.716;2023-02-22T09:10:46;10.60;90.50
21387;DHT22;10854;45.922;6.716;2023-02-22T09:13:14;10.80;87.40
21387;DHT22;10854;45.922;6.716;2023-02-22T09:15:43;10.80;84.70
21387;DHT22;10854;45.922;6.716;2023-02-22T09:18:12;10.80;83.00
21387;DHT22;10854;45.922;6.716;2023-02-22T09:20:41;10.90;82.00
21387;DHT22;10854;45.922;6.716;2023-02-22T09:23:10;11.00;79.80
21387;DHT22;10854;45.922;6.716;2023-02-22T09:25:38;11.20;77.70
21387;DHT22;10854;45.922;6.716;2023-02-22T09:28:07;11.40;76.50
21387;DHT22;10854;45.922;6.716;2023-02-22T09:30:36;11.60;74.90
21387;DHT22;10854;45.922;6.716;2023-02-22T09:33:07;11.80;73.40
21387;DHT22;10854;45.922;6.716;2023-02-22T09:35:38;12.10;71.90
21387;DHT22;10854;45.922;6.716;2023-02-22T09:38:18;12.50;71.60
21387;DHT22;10854;45.922;6.716;2023-02-22T09:41:12;12.80;70.70
21387;DHT22;10854;45.922;6.716;2023-02-22T09:46:29;13.30;67.90
21387;DHT22;10854;45.922;6.716;2023-02-22T09:49:08;13.40;67.00
21387;DHT22;10854;45.922;6.716;2023-02-22T09:57:08;14.60;65.30
21387;DHT22;10854;45.922;6.716;2023-02-22T09:59:42;15.20;63.50
21387;DHT22;10854;45.922;6.716;2023-02-22T10:04:51;16.30;61.50
21387;DHT22;10854;45.922;6.716;2023-02-22T10:09:53;17.40;57.50
21387;DHT22;10854;45.922;6.716;2023-02-22T10:12:29;17.50;56.40
21387;DHT22;10854;45.922;6.716;2023-02-22T10:20:40;18.20;55.30
21387;DHT22;10854;45.922;6.716;2023-02-22T10:23:31;18.40;54.10
21387;DHT22;10854;45.922;6.716;2023-02-22T10:26:28;18.70;53.20
21387;DHT22;10854;45.922;6.716;2023-02-22T10:29:27;18.80;50.80
21387;DHT22;10854;45.922;6.716;2023-02-22T10:31:56;18.70;49.70
21387;DHT22;10854;45.922;6.716;2023-02-22T10:34:32;18.80;50.10
21387;DHT22;10854;45.922;6.716;2023-02-22T10:37:28;18.90;49.90
21387;DHT22;10854;45.922;6.716;2023-02-22T10:40:14;19.00;50.10
21387;DHT22;10854;45.922;6.716;2023-02-22T10:42:45;19.50;50.40
21387;DHT22;10854;45.922;6.716;2023-02-22T10:45:27;20.00;49.40
21387;DHT22;10854;45.922;6.716;2023-02-22T10:47:59;20.20;46.70
21387;DHT22;10854;45.922;6.716;2023-02-22T10:50:30;20.30;47.30
21387;DHT22;10854;45.922;6.716;2023-02-22T10:52:59;20.60;46.90
21387;DHT22;10854;45.922;6.716;2023-02-22T10:55:27;20.70;46.40
21387;DHT22;10854;45.922;6.716;2023-02-22T10:58:02;20.60;45.40
21387;DHT22;10854;45.922;6.716;2023-02-22T11:00:38;20.70;45.00
21387;DHT22;10854;45.922;6.716;2023-02-22T11:03:21;20.70;43.90
21387;DHT22;10854;45.922;6.716;2023-02-22T11:05:50;20.80;44.50
21387;DHT22;10854;45.922;6.716;2023-02-22T11:08:27;20.80;44.90
21387;DHT22;10854;45.922;6.716;2023-02-22T11:11:01;21.10;44.60
21387;DHT22;10854;45.922;6.716;2023-02-22T11:16:24;21.60;43.90
21387;DHT22;10854;45.922;6.716;2023-02-22T11:19:09;21.60;43.50
21387;DHT22;10854;45.922;6.716;2023-02-22T11:21:39;21.30;43.90
21387;DHT22;10854;45.922;6.716;2023-02-22T11:24:10;21.10;44.10
21387;DHT22;10854;45.922;6.716;2023-02-22T11:26:43;20.70;44.00
21387;DHT22;10854;45.922;6.716;2023-02-22T11:29:27;20.20;44.50
21387;DHT22;10854;45.922;6.716;2023-02-22T11:32:12;19.70;45.00
21387;DHT22;10854;45.922;6.716;2023-02-22T11:34:41;19.30;45.80
21387;DHT22;10854;45.922;6.716;2023-02-22T11:37:30;18.90;46.60
21387;DHT22;10854;45.922;6.716;2023-02-22T11:40:21;18.50;47.20
21387;DHT22;10854;45.922;6.716;2023-02-22T11:43:17;18.20;47.90
21387;DHT22;10854;45.922;6.716;2023-02-22T11:45:58;18.00;48.30
21387;DHT22;10854;45.922;6.716;2023-02-22T11:48:31;17.70;48.90
21387;DHT22;10854;45.922;6.716;2023-02-22T11:56:24;17.10;49.90
21387;DHT22;10854;45.922;6.716;2023-02-22T12:01:52;16.90;50.60
21387;DHT22;10854;45.922;6.716;2023-02-22T12:15:48;16.60;51.20
21387;DHT22;10854;45.922;6.716;2023-02-22T12:19:23;16.50;51.50
21387;DHT22;10854;45.922;6.716;2023-02-22T12:21:31;16.50;51.80
21387;DHT22;10854;45.922;6.716;2023-02-22T12:24:06;16.60;51.90
21387;DHT22;10854;45.922;6.716;2023-02-22T12:26:38;16.60;51.90
21387;DHT22;10854;45.922;6.716;2023-02-22T12:29:27;16.40;52.20
21387;DHT22;10854;45.922;6.716;2023-02-22T12:32:11;16.40;52.60
21387;DHT22;10854;45.922;6.716;2023-02-22T12:34:56;16.50;52.90
21387;DHT22;10854;45.922;6.716;2023-02-22T12:37:32;16.50;53.00
21387;DHT22;10854;45.922;6.716;2023-02-22T12:40:09;16.30;52.90
21387;DHT22;10854;45.922;6.716;2023-02-22T12:45:58;16.00;53.40
21387;DHT22;10854;45.922;6.716;2023-02-22T12:51:57;15.80;54.20
21387;DHT22;10854;45.922;6.716;2023-02-22T12:54:46;15.70;54.00
21387;DHT22;10854;45.922;6.716;2023-02-22T12:57:35;15.70;54.30
21387;DHT22;10854;45.922;6.716;2023-02-22T13:00:14;15.80;54.30
21387;DHT22;10854;45.922;6.716;2023-02-22T13:05:33;15.60;54.10
21387;DHT22;10854;45.922;6.716;2023-02-22T13:19:37;14.70;55.30
21387;DHT22;10854;45.922;6.716;2023-02-22T13:25:57;14.30;56.20
21387;DHT22;10854;45.922;6.716;2023-02-22T13:27:58;14.10;56.80
21387;DHT22;10854;45.922;6.716;2023-02-22T13:30:44;13.90;57.20
21387;DHT22;10854;45.922;6.716;2023-02-22T13:39:16;13.60;58.20
21387;DHT22;10854;45.922;6.716;2023-02-22T13:42:02;13.60;58.70
21387;DHT22;10854;45.922;6.716;2023-02-22T13:47:37;13.40;61.70
21387;DHT22;10854;45.922;6.716;2023-02-22T13:53:14;12.70;67.30
21387;DHT22;10854;45.922;6.716;2023-02-22T13:55:47;12.10;68.70
21387;DHT22;10854;45.922;6.716;2023-02-22T13:58:19;11.80;71.30
21387;DHT22;10854;45.922;6.716;2023-02-22T14:00:56;11.50;73.00
21387;DHT22;10854;45.922;6.716;2023-02-22T14:06:04;11.20;77.20
21387;DHT22;10854;45.922;6.716;2023-02-22T14:11:03;11.00;79.20
21387;DHT22;10854;45.922;6.716;2023-02-22T14:16:30;10.90;82.20
21387;DHT22;10854;45.922;6.716;2023-02-22T14:21:33;10.90;84.40
21387;DHT22;10854;45.922;6.716;2023-02-22T14:24:11;10.80;84.90
21387;DHT22;10854;45.922;6.716;2023-02-22T14:26:57;10.80;86.50
21387;DHT22;10854;45.922;6.716;2023-02-22T14:29:26;10.70;89.50
21387;DHT22;10854;45.922;6.716;2023-02-22T14:32:08;10.60;90.90
21387;DHT22;10854;45.922;6.716;2023-02-22T14:34:55;10.60;93.40
21387;DHT22;10854;45.922;6.716;2023-02-22T14:37:37;10.60;96.70
21387;DHT22;10854;45.922;6.716;2023-02-22T14:40:26;10.50;99.90
21387;DHT22;10854;45.922;6.716;2023-02-22T14:43:14;10.50;99.90
21387;DHT22;10854;45.922;6.716;2023-02-22T14:45:54;10.40;99.90
21387;DHT22;10854;45.922;6.716;2023-02-22T14:48:31;10.30;99.90
21387;DHT22;10854;45.922;6.716;2023-02-22T14:51:14;10.20;99.90
21387;DHT22;10854;45.922;6.716;2023-02-22T14:53:51;10.10;99.90
21387;DHT22;10854;45.922;6.716;2023-02-22T14:56:29;10.00;99.90
21387;DHT22;10854;45.922;6.716;2023-02-22T14:59:14;9.90;99.90
21387;DHT22;10854;45.922;6.716;2023-02-22T15:01:44;9.80;99.90
21387;DHT22;10854;45.922;6.716;2023-02-22T15:04:32;9.80;99.90
21387;DHT22;10854;45.922;6.716;2023-02-22T15:07:25;9.70;99.90
21387;DHT22;10854;45.922;6.716;2023-02-22T15:10:14;9.60;99.90
21387;DHT22;10854;45.922;6.716;2023-02-22T15:13:00;9.50;99.90
21387;DHT22;10854;45.922;6.716;2023-02-22T15:15:41;9.40;99.90
21387;DHT22;10854;45.922;6.716;2023-02-22T15:18:25;9.30;99.90
21387;DHT22;10854;45.922;6.716;2023-02-22T15:21:01;9.30;99.90
21387;DHT22;10854;45.922;6.716;2023-02-22T15:23:54;9.30;99.90
21387;DHT22;10854;45.922;6.716;2023-02-22T15:26:30;9.30;99.90
21387;DHT22;10854;45.922;6.716;2023-02-22T15:31:43;9.40;99.90
21387;DHT22;10854;45.922;6.716;2023-02-22T15:36:47;9.30;99.90
21387;DHT22;10854;45.922;6.716;2023-02-22T15:39:25;9.30;99.90
21387;DHT22;10854;45.922;6.716;2023-02-22T15:42:09;9.30;99.90
21387;DHT22;10854;45.922;6.716;2023-02-22T15:44:42;9.20;99.90
21387;DHT22;10854;45.922;6.716;2023-02-22T15:47:22;9.20;99.90
21387;DHT22;10854;45.922;6.716;2023-02-22T15:55:41;9.20;99.90
21387;DHT22;10854;45.922;6.716;2023-02-22T15:58:22;9.20;99.90
21387;DHT22;10854;45.922;6.716;2023-02-22T16:01:00;9.10;99.90
21387;DHT22;10854;45.922;6.716;2023-02-22T16:03:58;9.10;99.90
21387;DHT22;10854;45.922;6.716;2023-02-22T16:06:38;9.10;99.90
21387;DHT22;10854;45.922;6.716;2023-02-22T16:09:11;9.00;99.90
21387;DHT22;10854;45.922;6.716;2023-02-22T16:11:42;9.00;99.90
21387;DHT22;10854;45.922;6.716;2023-02-22T16:14:30;8.90;99.90
21387;DHT22;10854;45.922;6.716;2023-02-22T16:22:49;8.80;99.90
21387;DHT22;10854;45.922;6.716;2023-02-22T16:27:55;8.70;99.90
21387;DHT22;10854;45.922;6.716;2023-02-22T16:30:30;8.60;99.90
21387;DHT22;10854;45.922;6.716;2023-02-22T16:33:07;8.60;99.90
21387;DHT22;10854;45.922;6.716;2023-02-22T16:35:40;8.60;99.90
21387;DHT22;10854;45.922;6.716;2023-02-22T16:38:18;8.60;99.90
21387;DHT22;10854;45.922;6.716;2023-02-22T16:40:51;8.50;99.90
21387;DHT22;10854;45.922;6.716;2023-02-22T16:43:29;8.50;99.90
21387;DHT22;10854;45.922;6.716;2023-02-22T16:46:00;8.50;99.90
21387;DHT22;10854;45.922;6.716;2023-02-22T16:48:31;8.50;99.90
21387;DHT22;10854;45.922;6.716;2023-02-22T16:51:09;8.50;99.90
21387;DHT22;10854;45.922;6.716;2023-02-22T16:53:43;8.40;99.90
21387;DHT22;10854;45.922;6.716;2023-02-22T16:56:14;8.40;99.90
21387;DHT22;10854;45.922;6.716;2023-02-22T16:58:46;8.50;99.90
21387;DHT22;10854;45.922;6.716;2023-02-22T17:01:17;8.40;99.90
21387;DHT22;10854;45.922;6.716;2023-02-22T17:03:46;8.40;99.90
21387;DHT22;10854;45.922;6.716;2023-02-22T17:06:15;8.30;99.90
21387;DHT22;10854;45.922;6.716;2023-02-22T17:08:44;8.30;99.90
21387;DHT22;10854;45.922;6.716;2023-02-22T17:11:13;8.30;99.90
21387;DHT22;10854;45.922;6.716;2023-02-22T17:13:42;8.30;99.90
21387;DHT22;10854;45.922;6.716;2023-02-22T17:16:13;8.30;99.90
21387;DHT22;10854;45.922;6.716;2023-02-22T17:18:42;8.30;99.90
21387;DHT22;10854;45.922;6.716;2023-02-22T17:21:12;8.20;99.90
21387;DHT22;10854;45.922;6.716;2023-02-22T17:23:43;8.20;99.90
21387;DHT22;10854;45.922;6.716;2023-02-22T17:26:14;8.20;99.90
21387;DHT22;10854;45.922;6.716;2023-02-22T17:28:43;8.20;99.90
21387;DHT22;10854;45.922;6.716;2023-02-22T17:31:22;8.20;99.90
21387;DHT22;10854;45.922;6.716;2023-02-22T17:33:52;8.20;99.90
21387;DHT22;10854;45.922;6.716;2023-02-22T17:36:22;8.10;99.90
21387;DHT22;10854;45.922;6.716;2023-02-22T17:38:50;8.20;99.90
21387;DHT22;10854;45.922;6.716;2023-02-22T17:41:18;8.10;99.90
21387;DHT22;10854;45.922;6.716;2023-02-22T17:43:47;8.10;99.90
21387;DHT22;10854;45.922;6.716;2023-02-22T17:46:16;8.10;99.90
21387;DHT22;10854;45.922;6.716;2023-02-22T17:48:46;8.10;99.90
21387;DHT22;10854;45.922;6.716;2023-02-22T17:51:22;8.10;99.90
21387;DHT22;10854;45.922;6.716;2023-02-22T17:53:51;8.10;99.90
21387;DHT22;10854;45.922;6.716;2023-02-22T17:56:20;8.10;99.90
21387;DHT22;10854;45.922;6.716;2023-02-22T17:58:51;8.00;99.90
21387;DHT22;10854;45.922;6.716;2023-02-22T18:01:26;8.00;99.90
21387;DHT22;10854;45.922;6.716;2023-02-22T18:03:58;8.00;99.90
21387;DHT22;10854;45.922;6.716;2023-02-22T18:06:29;8.00;99.90
21387;DHT22;10854;45.922;6.716;2023-02-22T18:09:00;8.00;99.90
21387;DHT22;10854;45.922;6.716;2023-02-22T18:11:28;8.00;99.90
21387;DHT22;10854;45.922;6.716;2023-02-22T18:14:00;8.00;99.90
21387;DHT22;10854;45.922;6.716;2023-02-22T18:16:28;7.90;99.90
21387;DHT22;10854;45.922;6.716;2023-02-22T18:18:57;7.90;99.90
21387;DHT22;10854;45.922;6.716;2023-02-22T18:21:28;7.90;99.90
21387;DHT22;10854;45.922;6.716;2023-02-22T18:23:56;7.90;99.90
21387;DHT22;10854;45.922;6.716;2023-02-22T18:26:25;7.90;99.90
21387;DHT22;10854;45.922;6.716;2023-02-22T18:28:53;7.90;99.90
21387;DHT22;10854;45.922;6.716;2023-02-22T18:31:22;7.80;99.90
21387;DHT22;10854;45.922;6.716;2023-02-22T18:33:51;7.80;99.90
21387;DHT22;10854;45.922;6.716;2023-02-22T18:36:20;7.80;99.90
21387;DHT22;10854;45.922;6.716;2023-02-22T18:38:52;7.80;99.90
21387;DHT22;10854;45.922;6.716;2023-02-22T18:41:24;7.70;99.90